Time;durP1;ratioP1;P1;durP2;ratioP2;P2;SDS_P1;SDS_P2;PMS_P1;PMS_P2;Temp;Humidity;BMP_temperature;BMP_pressure;BME280_temperature;BME280_humidity;BME280_pressure;Samples;Min_cycle;Max_cycle;Signal;HPM_P1;HPM_P2
2022/12/18 00:01:42;;;;;;;32.92;21.08;;;154.10;2252.80;;;;;;4957375;29;20039;-81
2022/12/18 00:04:18;;;;;;;35.92;22.45;;;154.00;2252.80;;;;;;4957701;29;20063;-79
2022/12/18 00:06:44;;;;;;;42.25;26.13;;;153.90;2252.80;;;;;;4957350;29;20034;-82
2022/12/18 00:09:10;;;;;;;41.10;27.65;;;153.90;2252.80;;;;;;4957354;29;20023;-80
2022/12/18 00:11:36;;;;;;;39.97;24.15;;;154.00;2252.80;;;;;;4957464;29;20027;-82
2022/12/18 00:14:02;;;;;;;46.92;28.60;;;154.00;2252.80;;;;;;4967688;28;20030;-83
2022/12/18 00:16:32;;;;;;;38.55;25.20;;;154.00;2252.80;;;;;;4975329;28;20031;-83
2022/12/18 00:18:57;;;;;;;38.53;24.65;;;154.00;2252.80;;;;;;4975493;28;20046;-79
2022/12/18 00:21:23;;;;;;;33.80;21.80;;;154.00;2252.80;;;;;;4976310;28;20026;-83
2022/12/18 00:23:50;;;;;;;31.35;21.67;;;153.90;2252.80;;;;;;4976181;28;20031;-81
2022/12/18 00:26:27;;;;;;;34.75;22.88;;;153.70;2252.80;;;;;;4976303;28;20118;-82
2022/12/18 00:28:55;;;;;;;37.15;24.15;;;153.80;2252.80;;;;;;4976133;28;20038;-81
2022/12/18 00:31:24;;;;;;;40.05;23.25;;;153.70;2252.80;;;;;;4976321;28;20030;-83
2022/12/18 00:33:49;;;;;;;37.95;23.88;;;153.70;2252.80;;;;;;4977301;28;20472;-82
2022/12/18 00:36:20;;;;;;;48.75;27.45;;;153.70;2252.80;;;;;;4976025;28;20106;-79
2022/12/18 00:38:47;;;;;;;39.47;24.73;;;153.80;2252.80;;;;;;4976221;28;20061;-82
2022/12/18 00:42:55;;;;;;;42.72;25.45;;;153.70;2252.80;;;;;;4975977;28;20521;-82
2022/12/18 00:44:05;;;;;;;43.67;25.52;;;153.80;2252.80;;;;;;4974890;28;20031;-80
2022/12/18 00:46:31;;;;;;;44.70;27.48;;;153.70;2252.80;;;;;;4975749;28;20335;-83
2022/12/18 00:48:57;;;;;;;49.90;30.52;;;153.70;2252.80;;;;;;4975015;28;20027;-81
2022/12/18 00:51:24;;;;;;;49.60;28.83;;;154.20;2252.80;;;;;;4975164;28;20026;-83
2022/12/18 00:53:50;;;;;;;40.55;25.85;;;153.80;2252.80;;;;;;4975875;28;20118;-84
2022/12/18 00:56:16;;;;;;;46.17;28.20;;;153.70;2252.80;;;;;;4974364;28;20059;-82
2022/12/18 00:58:42;;;;;;;43.65;29.17;;;153.60;2252.80;;;;;;4975615;28;20034;-81
2022/12/18 01:01:08;;;;;;;40.25;25.45;;;153.70;2252.80;;;;;;4975934;28;20382;-81
2022/12/18 01:03:34;;;;;;;47.67;29.58;;;153.70;2252.80;;;;;;4975636;28;20387;-80
2022/12/18 01:06:08;;;;;;;45.50;28.70;;;153.70;2252.80;;;;;;4975671;28;20025;-83
2022/12/18 01:08:35;;;;;;;43.45;26.67;;;153.80;2252.80;;;;;;4975584;28;20034;-80
2022/12/18 01:11:06;;;;;;;43.05;27.70;;;153.60;2252.80;;;;;;4974948;28;20023;-81
2022/12/18 01:13:32;;;;;;;43.38;28.25;;;153.80;2252.80;;;;;;4975428;28;20035;-83
2022/12/18 01:15:58;;;;;;;43.28;26.08;;;153.80;2252.80;;;;;;4975454;28;20118;-81
2022/12/18 01:18:24;;;;;;;46.55;28.73;;;153.80;2252.80;;;;;;4974812;28;20041;-82
2022/12/18 01:20:50;;;;;;;45.92;29.10;;;153.80;2252.80;;;;;;4975361;28;20169;-81
2022/12/18 01:23:16;;;;;;;48.72;29.38;;;153.70;2252.80;;;;;;4975303;28;20459;-81
2022/12/18 01:25:42;;;;;;;46.60;29.52;;;153.80;2252.80;;;;;;4974991;28;20394;-82
2022/12/18 01:28:07;;;;;;;46.05;30.05;;;153.80;2252.80;;;;;;4975141;28;20096;-78
2022/12/18 01:30:33;;;;;;;52.75;32.70;;;153.80;2252.80;;;;;;4974584;28;20065;-83
2022/12/18 01:32:59;;;;;;;50.35;30.55;;;153.80;2252.80;;;;;;4974849;28;20023;-80
2022/12/18 01:35:26;;;;;;;54.83;30.45;;;153.70;2252.80;;;;;;4974109;28;20113;-79
2022/12/18 01:37:56;;;;;;;53.00;30.65;;;153.70;2252.80;;;;;;4975093;28;20035;-79
2022/12/18 01:40:22;;;;;;;54.83;32.83;;;153.60;2252.80;;;;;;4974743;28;20034;-81
2022/12/18 01:42:52;;;;;;;63.45;37.47;;;153.80;2252.80;;;;;;4975089;28;20034;-81
2022/12/18 01:45:18;;;;;;;83.25;49.60;;;128.90;2252.80;;;;;;4974892;28;20022;-77
2022/12/18 01:47:48;;;;;;;71.10;40.78;;;128.90;2252.80;;;;;;4974633;28;20068;-80
2022/12/18 01:50:21;;;;;;;70.10;39.45;;;128.90;2252.80;;;;;;4991056;28;20027;-81
2022/12/18 01:53:07;;;;;;;60.58;36.15;;;128.90;2252.80;;;;;;4974515;28;20082;-82
2022/12/18 01:55:51;;;;;;;53.63;30.52;;;128.90;2252.80;;;;;;4974771;28;20030;-82
2022/12/18 01:58:19;;;;;;;52.47;34.53;;;128.90;2252.80;;;;;;4974572;28;20057;-79
2022/12/18 02:00:45;;;;;;;52.85;35.58;;;128.80;2252.80;;;;;;4974324;28;20399;-81
2022/12/18 02:03:11;;;;;;;91.88;47.25;;;128.80;2252.80;;;;;;4974374;28;20383;-79
2022/12/18 02:05:46;;;;;;;73.72;40.58;;;128.80;2252.80;;;;;;4974527;28;20132;-79
2022/12/18 02:08:33;;;;;;;66.47;35.63;;;128.90;2252.80;;;;;;4973987;28;20419;-79
2022/12/18 02:11:12;;;;;;;62.90;39.30;;;128.80;2252.80;;;;;;4974409;28;20030;-79
2022/12/18 02:14:08;;;;;;;55.80;32.00;;;128.80;2252.80;;;;;;4974238;28;20041;-81
2022/12/18 02:16:45;;;;;;;50.72;31.45;;;128.80;2252.80;;;;;;4974395;28;20031;-81
2022/12/18 02:19:48;;;;;;;54.95;32.33;;;128.80;2252.80;;;;;;4974351;28;20034;-82
2022/12/18 02:22:30;;;;;;;66.97;38.45;;;128.90;2252.80;;;;;;4990143;28;20030;-81
2022/12/18 02:25:21;;;;;;;57.05;34.22;;;153.60;2252.80;;;;;;4974571;28;20031;-82
2022/12/18 02:27:49;;;;;;;53.28;33.15;;;153.60;2252.80;;;;;;4973871;28;20503;-80
2022/12/18 02:30:16;;;;;;;57.97;31.98;;;128.90;2252.80;;;;;;4973800;28;20034;-80
2022/12/18 02:32:46;;;;;;;57.60;34.63;;;128.90;2252.80;;;;;;4974571;28;20031;-82
2022/12/18 02:35:17;;;;;;;53.75;33.58;;;128.90;2252.80;;;;;;4972572;28;20103;-81
2022/12/18 02:37:46;;;;;;;48.60;30.08;;;128.90;2252.80;;;;;;4971017;28;20062;-80
2022/12/18 02:40:15;;;;;;;51.78;29.48;;;128.80;2252.80;;;;;;4953672;29;20020;-80
2022/12/18 02:42:41;;;;;;;55.00;31.98;;;128.90;2252.80;;;;;;4952688;29;20361;-79
2022/12/18 02:45:07;;;;;;;55.92;32.85;;;128.80;2252.80;;;;;;4954668;29;20035;-78
2022/12/18 02:47:37;;;;;;;58.90;34.80;;;128.80;2252.80;;;;;;4954360;29;20027;-80
2022/12/18 02:50:22;;;;;;;63.30;36.42;;;128.90;2252.80;;;;;;4954330;29;20091;-84
2022/12/18 02:53:09;;;;;;;69.43;39.05;;;153.60;2252.80;;;;;;4954471;29;20066;-77
2022/12/18 02:56:02;;;;;;;78.57;38.97;;;153.70;2252.80;;;;;;4954149;29;20027;-79
2022/12/18 02:58:48;;;;;;;59.42;35.58;;;153.60;2252.80;;;;;;4954449;29;20432;-82
2022/12/18 03:01:17;;;;;;;64.15;35.65;;;128.90;2252.80;;;;;;4954472;29;20472;-83
2022/12/18 03:03:52;;;;;;;64.70;36.13;;;153.60;2252.80;;;;;;4954115;29;20023;-81
2022/12/18 03:06:27;;;;;;;58.42;33.35;;;153.60;2252.80;;;;;;4954305;29;20427;-79
2022/12/18 03:09:20;;;;;;;59.63;33.05;;;153.60;2252.80;;;;;;4954319;29;20391;-80
2022/12/18 03:14:40;;;;;;;56.42;33.22;;;128.90;2252.80;;;;;;4955471;29;20046;-81
2022/12/18 03:17:13;;;;;;;61.55;34.70;;;153.60;2252.80;;;;;;4953644;29;20092;-82
2022/12/18 03:19:39;;;;;;;;;;;153.60;2252.80;;;;;;4955296;28;20031;-83
2022/12/18 03:22:08;;;;;;;55.28;32.97;;;153.60;2252.80;;;;;;4958346;29;19913;-82
2022/12/18 03:24:38;;;;;;;55.45;31.80;;;153.60;2252.80;;;;;;4957878;29;20043;-78
2022/12/18 03:27:10;;;;;;;54.80;32.95;;;153.60;2252.80;;;;;;4942506;29;20031;-81
2022/12/18 03:29:43;;;;;;;61.47;34.28;;;153.60;2252.80;;;;;;4957803;29;20038;-79
2022/12/18 03:32:15;;;;;;;;;;;153.60;2252.80;;;;;;4957918;29;20030;-79
2022/12/18 03:34:43;;;;;;;51.17;30.02;;;153.70;2252.80;;;;;;4958095;29;19957;-80
2022/12/18 03:37:09;;;;;;;49.58;29.80;;;153.70;2252.80;;;;;;4957830;29;20031;-80
2022/12/18 03:39:37;;;;;;;55.30;31.02;;;153.60;2252.80;;;;;;4957535;29;20036;-82
2022/12/18 03:42:26;;;;;;;50.45;29.45;;;128.90;2252.80;;;;;;4957800;29;20030;-83
2022/12/18 03:45:15;;;;;;;52.00;29.08;;;128.90;2252.80;;;;;;4965377;28;20509;-80
2022/12/18 03:48:01;;;;;;;51.53;30.02;;;128.90;2252.80;;;;;;4976140;28;20398;-82
2022/12/18 03:50:59;;;;;;;52.45;31.13;;;128.80;2252.80;;;;;;4975248;28;20113;-80
2022/12/18 03:53:49;;;;;;;47.95;29.42;;;128.70;2252.80;;;;;;4963590;28;20041;-83
2022/12/18 03:56:17;;;;;;;44.65;26.95;;;128.80;2252.80;;;;;;4976644;28;20055;-78
2022/12/18 03:58:44;;;;;;;51.10;28.05;;;153.60;2252.80;;;;;;4976504;28;20619;-81
2022/12/18 04:01:14;;;;;;;48.58;28.58;;;153.60;2252.80;;;;;;4977074;28;20038;-82
2022/12/18 04:03:42;;;;;;;49.90;29.80;;;153.80;2252.80;;;;;;4976828;28;20101;-82
2022/12/18 04:06:09;;;;;;;50.80;30.95;;;153.80;2252.80;;;;;;4976364;28;20412;-79
2022/12/18 04:08:35;;;;;;;51.97;29.20;;;153.90;2252.80;;;;;;4976566;28;20031;-81
2022/12/18 04:11:02;;;;;;;49.20;29.02;;;153.80;2252.80;;;;;;4976681;28;20038;-80
2022/12/18 04:13:31;;;;;;;47.58;28.75;;;153.80;2252.80;;;;;;4969183;28;20054;-79
2022/12/18 04:15:57;;;;;;;47.55;30.33;;;153.90;2252.80;;;;;;4956476;29;20086;-82
2022/12/18 04:18:23;;;;;;;42.72;26.40;;;153.90;2252.80;;;;;;4955837;29;20062;-83
2022/12/18 04:20:49;;;;;;;49.10;29.52;;;153.90;2252.80;;;;;;4956920;29;20027;-82
2022/12/18 04:23:15;;;;;;;46.53;28.85;;;153.80;2252.80;;;;;;4957092;29;20146;-81
2022/12/18 04:25:41;;;;;;;45.40;27.48;;;153.80;2252.80;;;;;;4957010;29;20050;-78
2022/12/18 04:28:06;;;;;;;51.83;30.63;;;153.80;2252.80;;;;;;4956715;29;20027;-80
2022/12/18 04:30:32;;;;;;;49.85;29.27;;;153.60;2252.80;;;;;;4956963;28;20039;-79
2022/12/18 04:32:58;;;;;;;47.65;29.02;;;153.60;2252.80;;;;;;4956963;29;20355;-78
2022/12/18 04:35:24;;;;;;;46.08;27.85;;;128.90;2252.80;;;;;;4957760;28;20212;-77
2022/12/18 04:37:50;;;;;;;48.38;28.00;;;128.90;2252.80;;;;;;4956824;28;20502;-80
2022/12/18 04:40:16;;;;;;;46.30;28.88;;;128.80;2252.80;;;;;;4955696;29;20024;-80
2022/12/18 04:42:42;;;;;;;47.90;28.48;;;;;;;;;;4956083;29;20173;-78
2022/12/18 04:45:08;;;;;;;49.78;29.52;;;;;;;;;;4957653;29;20027;-80
2022/12/18 04:47:35;;;;;;;51.60;29.83;;;;;;;;;;4956312;29;20050;-78
2022/12/18 04:50:01;;;;;;;55.05;30.65;;;;;;;;;;4956659;29;20079;-81
2022/12/18 04:52:27;;;;;;;51.92;31.98;;;;;;;;;;4956602;29;20019;-79
2022/12/18 04:54:53;;;;;;;51.20;30.38;;;;;;;;;;4956190;29;20027;-79
2022/12/18 04:57:19;;;;;;;47.03;28.42;;;;;;;;;;4957975;29;20063;-80
2022/12/18 04:59:46;;;;;;;51.42;29.63;;;;;;;;;;4956461;29;20020;-79
2022/12/18 05:02:12;;;;;;;48.15;29.38;;;;;;;;;;4956100;29;20028;-80
2022/12/18 05:04:38;;;;;;;48.28;26.85;;;;;;;;;;4956219;29;20544;-78
2022/12/18 05:07:04;;;;;;;43.75;26.30;;;128.50;2252.80;;;;;;4956196;29;20034;-78
2022/12/18 05:09:30;;;;;;;44.72;28.90;;;128.40;2252.80;;;;;;4956019;29;20031;-81
2022/12/18 05:11:55;;;;;;;43.47;27.20;;;128.50;2252.80;;;;;;4956173;29;20067;-79
2022/12/18 05:14:21;;;;;;;48.35;28.95;;;128.40;2252.80;;;;;;4956017;29;20023;-79
2022/12/18 05:16:47;;;;;;;50.85;29.52;;;128.40;2252.80;;;;;;4955799;29;20033;-80
2022/12/18 05:19:13;;;;;;;47.30;28.58;;;128.50;2252.80;;;;;;4955985;29;20033;-78
2022/12/18 05:21:39;;;;;;;48.15;29.48;;;128.50;2252.80;;;;;;4956090;29;20034;-79
2022/12/18 05:24:05;;;;;;;49.42;28.83;;;128.60;2252.80;;;;;;4955715;29;20379;-81
2022/12/18 05:26:31;;;;;;;45.95;26.30;;;128.60;2252.80;;;;;;4955917;29;20023;-79
2022/12/18 05:28:57;;;;;;;40.75;24.83;;;128.50;2252.80;;;;;;4955824;29;20039;-79
2022/12/18 05:31:22;;;;;;;39.00;21.95;;;128.40;2252.80;;;;;;4955597;29;20035;-78
2022/12/18 05:33:48;;;;;;;42.47;24.60;;;128.30;2252.80;;;;;;4955719;29;20118;-83
2022/12/18 05:36:14;;;;;;;55.72;33.20;;;128.30;2252.80;;;;;;4955795;29;20455;-77
2022/12/18 05:38:40;;;;;;;49.15;31.63;;;128.30;2252.80;;;;;;4955344;29;20491;-80
2022/12/18 05:41:07;;;;;;;54.47;30.70;;;128.50;2252.80;;;;;;4955747;29;20035;-79
2022/12/18 05:43:37;;;;;;;52.70;33.83;;;128.90;2252.80;;;;;;4954721;28;20023;-80
2022/12/18 05:46:11;;;;;;;43.08;25.25;;;128.40;2252.80;;;;;;4955557;29;20075;-81
2022/12/18 05:48:37;;;;;;;41.58;24.13;;;128.50;2252.80;;;;;;4955516;29;20031;-80
2022/12/18 05:51:14;;;;;;;36.38;21.48;;;128.70;2252.80;;;;;;4955230;29;20487;-80
2022/12/18 05:53:41;;;;;;;44.22;26.52;;;128.70;2252.80;;;;;;4955490;29;20082;-80
2022/12/18 05:56:10;;;;;;;52.67;31.70;;;128.70;2252.80;;;;;;4955301;29;20081;-77
2022/12/18 05:58:37;;;;;;;39.35;23.50;;;128.70;2252.80;;;;;;4954998;29;20039;-81
2022/12/18 06:01:14;;;;;;;40.22;24.30;;;128.50;2252.80;;;;;;4955394;29;20027;-81
2022/12/18 06:03:40;;;;;;;36.25;22.23;;;128.50;2252.80;;;;;;4955232;29;20031;-80
2022/12/18 06:06:18;;;;;;;38.22;23.70;;;128.60;2252.80;;;;;;4954932;29;20487;-78
2022/12/18 06:08:45;;;;;;;39.53;23.77;;;128.70;2252.80;;;;;;4954996;29;20027;-79
2022/12/18 06:11:10;;;;;;;38.55;23.48;;;128.70;2252.80;;;;;;4955180;29;20392;-80
2022/12/18 06:13:37;;;;;;;41.35;23.08;;;128.60;2252.80;;;;;;4954760;29;20035;-79
2022/12/18 06:16:04;;;;;;;38.35;23.00;;;128.70;2252.80;;;;;;4954947;29;20122;-78
2022/12/18 06:18:31;;;;;;;41.90;24.63;;;128.50;2252.80;;;;;;4954954;29;20103;-81
2022/12/18 06:20:58;;;;;;;38.75;22.65;;;128.60;2252.80;;;;;;4954969;29;20050;-80
2022/12/18 06:23:24;;;;;;;39.72;24.33;;;128.50;2252.80;;;;;;4954893;29;20027;-81
2022/12/18 06:25:50;;;;;;;44.50;26.42;;;128.40;2252.80;;;;;;4954469;29;20054;-84
2022/12/18 06:28:15;;;;;;;44.35;25.65;;;128.80;2252.80;;;;;;4954720;29;20491;-83
2022/12/18 06:30:45;;;;;;;47.35;25.52;;;128.70;2252.80;;;;;;4954744;29;20062;-84
2022/12/18 06:33:11;;;;;;;55.17;32.90;;;128.90;2252.80;;;;;;4954373;29;20086;-81
2022/12/18 06:35:37;;;;;;;49.05;31.25;;;;;;;;;;4954687;29;20195;-80
2022/12/18 06:38:04;;;;;;;48.97;29.35;;;;;;;;;;4954916;29;20035;-81
2022/12/18 06:40:30;;;;;;;72.82;42.60;;;;;;;;;;4954119;29;20031;-80
2022/12/18 06:42:56;;;;;;;85.05;52.22;;;;;;;;;;4954434;29;20027;-77
2022/12/18 06:45:22;;;;;;;99.75;54.53;;;;;;;;;;4954500;29;20023;-82
2022/12/18 06:47:49;;;;;;;72.07;42.20;;;;;;;;;;4954141;29;20478;-80
2022/12/18 06:50:15;;;;;;;107.28;61.92;;;;;;;;;;4954165;29;20114;-81
2022/12/18 06:52:42;;;;;;;57.55;33.80;;;;;;;;;;4954370;29;20019;-82
2022/12/18 06:55:08;;;;;;;56.80;34.17;;;;;;;;;;4953399;28;20027;-79
2022/12/18 06:57:35;;;;;;;66.95;42.40;;;;;;;;;;4954316;29;20456;-79
2022/12/18 07:00:01;;;;;;;66.93;41.90;;;;;;;;;;4954470;29;20090;-79
2022/12/18 07:02:27;;;;;;;66.70;39.45;;;;;;;;;;4954159;29;20023;-80
2022/12/18 07:04:53;;;;;;;63.53;39.50;;;;;;;;;;4954396;29;20020;-81
2022/12/18 07:07:19;;;;;;;58.33;33.90;;;;;;;;;;4954348;29;20030;-82
2022/12/18 07:09:45;;;;;;;53.53;31.38;;;;;;;;;;4954034;29;20035;-79
2022/12/18 07:12:11;;;;;;;59.17;37.97;;;;;;;;;;4954714;29;20075;-79
2022/12/18 07:14:38;;;;;;;50.00;30.38;;;;;;;;;;4953777;28;20032;-79
2022/12/18 07:17:04;;;;;;;57.72;36.67;;;;;;;;;;4957350;29;20031;-81
2022/12/18 07:19:30;;;;;;;52.67;32.72;;;;;;;;;;4977245;28;20027;-79
2022/12/18 07:21:56;;;;;;;44.70;26.17;;;;;;;;;;4977760;28;20058;-80
2022/12/18 07:24:22;;;;;;;38.35;26.35;;;;;;;;;;4970102;28;20035;-80
2022/12/18 07:26:48;;;;;;;39.50;24.48;;;128.70;2252.80;;;;;;4955018;29;20037;-82
2022/12/18 07:29:14;;;;;;;43.97;27.13;;;128.50;2252.80;;;;;;4954346;29;20031;-78
2022/12/18 07:31:40;;;;;;;44.83;29.30;;;;;;;;;;4954551;29;20462;-79
2022/12/18 07:34:10;;;;;;;44.85;26.20;;;;;;;;;;4954281;29;20027;-80
2022/12/18 07:36:36;;;;;;;50.88;31.02;;;;;;;;;;4954236;29;20468;-80
2022/12/18 07:39:02;;;;;;;43.58;27.08;;;;;;;;;;4955221;29;20476;-79
2022/12/18 07:41:28;;;;;;;50.13;29.80;;;;;;;;;;4960046;29;20038;-78
2022/12/18 07:43:54;;;;;;;56.40;30.35;;;;;;;;;;4975847;28;20027;-79
2022/12/18 07:46:20;;;;;;;59.40;30.40;;;;;;;;;;5011343;28;20023;-82
2022/12/18 07:48:46;;;;;;;50.00;30.42;;;128.50;2252.80;;;;;;5012306;28;20021;-80
2022/12/18 07:51:13;;;;;;;57.00;32.80;;;128.30;2252.80;;;;;;4995467;28;20046;-79
2022/12/18 07:53:39;;;;;;;62.20;38.78;;;128.40;2252.80;;;;;;4994425;28;20031;-79
2022/12/18 07:56:07;;;;;;;69.40;42.70;;;128.40;2252.80;;;;;;4989777;28;20049;-81
2022/12/18 07:58:34;;;;;;;50.45;27.98;;;128.40;2252.80;;;;;;4989993;28;20030;-84
2022/12/18 08:01:07;;;;;;;59.08;35.65;;;128.30;2252.80;;;;;;4977008;28;20033;-78
2022/12/18 08:03:33;;;;;;;50.80;31.75;;;128.40;2252.80;;;;;;4973167;28;20431;-80
2022/12/18 08:06:04;;;;;;;49.30;31.73;;;128.40;2252.80;;;;;;4974465;28;20022;-79
2022/12/18 08:08:30;;;;;;;59.25;37.08;;;128.50;2252.80;;;;;;4976784;28;20038;-82
2022/12/18 08:10:57;;;;;;;61.15;36.63;;;128.60;2252.80;;;;;;4976599;28;20030;-84
2022/12/18 08:13:23;;;;;;;63.35;36.58;;;128.40;2252.80;;;;;;4972813;28;20081;-82
2022/12/18 08:16:00;;;;;;;55.92;34.50;;;128.50;2252.80;;;;;;4958722;29;20035;-80
2022/12/18 08:18:26;;;;;;;73.50;44.08;;;128.50;2252.80;;;;;;4956217;29;20038;-78
2022/12/18 08:20:52;;;;;;;69.85;41.28;;;128.40;2252.80;;;;;;4956237;29;20032;-81
2022/12/18 08:23:18;;;;;;;57.20;33.08;;;128.50;2252.80;;;;;;4957237;29;20175;-80
2022/12/18 08:25:43;;;;;;;68.93;38.33;;;128.50;2252.80;;;;;;4956949;29;20031;-83
2022/12/18 08:28:10;;;;;;;68.75;40.25;;;128.50;2252.80;;;;;;4957270;29;20501;-81
2022/12/18 08:30:36;;;;;;;87.65;52.17;;;128.40;2252.80;;;;;;4956880;29;20034;-78
2022/12/18 08:33:02;;;;;;;67.32;41.00;;;128.60;2252.80;;;;;;4956888;29;20023;-77
2022/12/18 08:35:28;;;;;;;69.82;39.75;;;128.60;2252.80;;;;;;4956984;29;20031;-80
2022/12/18 08:37:54;;;;;;;76.70;49.53;;;128.60;2252.80;;;;;;4957117;29;20034;-84
2022/12/18 08:40:20;;;;;;;73.55;43.28;;;128.70;2252.80;;;;;;4956602;29;20468;-81
2022/12/18 08:45:29;;;;;;;73.00;44.33;;;128.60;2252.80;;;;;;4967130;28;20414;-80
2022/12/18 08:47:55;;;;;;;66.20;40.35;;;128.60;2252.80;;;;;;4975447;28;20035;-79
2022/12/18 08:50:21;;;;;;;67.32;41.20;;;128.60;2252.80;;;;;;4975320;28;20098;-80
2022/12/18 08:52:47;;;;;;;64.07;41.65;;;128.70;2252.80;;;;;;4975804;28;20035;-83
2022/12/18 08:55:13;;;;;;;58.40;37.03;;;128.80;2252.80;;;;;;4976152;28;20054;-83
2022/12/18 08:57:39;;;;;;;69.43;41.88;;;;;;;;;;4975847;28;20055;-80
2022/12/18 09:00:05;;;;;;;70.30;44.03;;;;;;;;;;4991850;28;20029;-83
2022/12/18 09:02:32;;;;;;;70.45;43.72;;;;;;;;;;4992279;28;20023;-80
2022/12/18 09:04:58;;;;;;;81.15;49.15;;;;;;;;;;4992099;28;20395;-82
2022/12/18 09:07:24;;;;;;;83.63;49.15;;;;;;;;;;4991825;28;20031;-80
2022/12/18 09:09:51;;;;;;;96.47;54.80;;;;;;;;;;4991766;28;20463;-80
2022/12/18 09:12:17;;;;;;;94.28;54.50;;;;;;;;;;4991983;28;20050;-79
2022/12/18 09:14:43;;;;;;;96.90;55.78;;;;;;;;;;4991568;28;20030;-81
2022/12/18 09:17:09;;;;;;;128.38;65.55;;;;;;;;;;4991136;28;20030;-83
2022/12/18 09:19:35;;;;;;;124.05;65.55;;;;;;;;;;4991574;28;20438;-84
2022/12/18 09:22:01;;;;;;;81.75;48.58;;;;;;;;;;4991643;28;20019;-82
2022/12/18 09:24:28;;;;;;;94.47;56.00;;;;;;;;;;4991886;28;20137;-80
2022/12/18 09:26:54;;;;;;;81.18;50.03;;;;;;;;;;4991914;28;20439;-80
2022/12/18 09:29:21;;;;;;;93.47;52.85;;;;;;;;;;4991211;28;20038;-80
2022/12/18 09:31:47;;;;;;;77.47;44.70;;;;;;;;;;4991638;28;20019;-80
2022/12/18 09:34:13;;;;;;;79.47;49.88;;;;;;;;;;4991459;28;20023;-80
2022/12/18 09:36:39;;;;;;;59.63;36.40;;;;;;;;;;4991185;28;20026;-81
2022/12/18 09:39:05;;;;;;;68.55;39.83;;;;;;;;;;4991373;28;20022;-82
2022/12/18 09:41:53;;;;;;;76.38;47.60;;;;;;;;;;4991403;28;20383;-82
2022/12/18 09:44:21;;;;;;;73.20;44.08;;;;;;;;;;4991407;28;20062;-81
2022/12/18 09:46:50;;;;;;;69.22;42.05;;;;;;;;;;4991248;28;20118;-81
2022/12/18 09:49:18;;;;;;;80.10;47.75;;;;;;;;;;4990878;28;20034;-80
2022/12/18 09:51:49;;;;;;;73.28;43.40;;;;;;;;;;4991075;28;20054;-82
2022/12/18 09:54:21;;;;;;;83.78;47.60;;;;;;;;;;4990917;28;20081;-79
2022/12/18 09:56:48;;;;;;;77.53;42.37;;;;;;;;;;4974712;28;20058;-81
2022/12/18 09:59:36;;;;;;;86.30;50.30;;;;;;;;;;4974957;28;20034;-82
2022/12/18 10:02:16;;;;;;;62.35;36.28;;;;;;;;;;4976592;28;20057;-85
2022/12/18 10:04:43;;;;;;;83.90;50.90;;;;;;;;;;4973251;28;20502;-79
2022/12/18 10:07:16;;;;;;;82.53;47.85;;;;;;;;;;4964485;28;20127;-79
2022/12/18 10:09:41;;;;;;;;;;;;;;;;;;4955324;29;20031;-77
2022/12/18 10:12:23;;;;;;;68.95;39.35;;;;;;;;;;4955040;29;19913;-75
2022/12/18 10:14:57;;;;;;;87.93;50.92;;;;;;;;;;4971052;28;20106;-78
2022/12/18 10:17:23;;;;;;;64.90;38.85;;;;;;;;;;4971063;28;20435;-78
2022/12/18 10:19:50;;;;;;;61.38;35.67;;;;;;;;;;4971138;28;20031;-80
2022/12/18 10:22:19;;;;;;;81.88;49.33;;;;;;;;;;4971186;28;20495;-78
2022/12/18 10:25:04;;;;;;;73.07;47.33;;;;;;;;;;4988234;28;20026;-78
2022/12/18 10:27:31;;;;;;;79.32;52.47;;;;;;;;;;4974176;28;20035;-81
2022/12/18 10:29:57;;;;;;;81.63;52.88;;;;;;;;;;4973748;28;20034;-80
2022/12/18 10:32:28;;;;;;;59.85;37.97;;;;;;;;;;4973930;28;20467;-78
2022/12/18 10:34:56;;;;;;;81.88;54.78;;;;;;;;;;4973968;28;20081;-81
2022/12/18 10:37:26;;;;;;;91.32;54.10;;;;;;;;;;4973893;28;20023;-78
2022/12/18 10:40:10;;;;;;;82.50;49.30;;;;;;;;;;4973980;28;20026;-80
2022/12/18 10:42:36;;;;;;;72.43;44.20;;;153.80;2252.80;;;;;;4975015;28;20023;-82
2022/12/18 10:45:08;;;;;;;61.95;37.60;;;128.90;2252.80;;;;;;4973735;28;20038;-79
2022/12/18 10:47:34;;;;;;;;;;;128.90;2252.80;;;;;;4974341;28;20032;-79
2022/12/18 10:50:01;;;;;;;59.47;41.22;;;154.00;2252.80;;;;;;4973968;28;20021;-83
2022/12/18 10:52:28;;;;;;;70.70;50.03;;;;;;;;;;4973552;28;20031;-83
2022/12/18 10:55:03;;;;;;;83.63;61.17;;;;;;;;;;4973757;28;20061;-84
2022/12/18 10:57:32;;;;;;;62.83;38.67;;;;;;;;;;4967669;28;20051;-81
2022/12/18 10:59:59;;;;;;;56.45;34.58;;;;;;;;;;4962359;28;20122;-80
2022/12/18 11:02:34;;;;;;;54.35;32.72;;;;;;;;;;4963122;28;20015;-79
2022/12/18 11:05:01;;;;;;;51.92;29.30;;;;;;;;;;4964926;28;20554;-83
2022/12/18 11:07:47;;;;;;;52.45;29.35;;;;;;;;;;4964465;28;20035;-81
2022/12/18 11:10:17;;;;;;;47.65;29.17;;;;;;;;;;4963985;28;20376;-78
2022/12/18 11:12:43;;;;;;;54.90;32.08;;;153.60;2252.80;;;;;;4964134;28;20026;-80
2022/12/18 11:15:40;;;;;;;59.35;35.17;;;128.90;2252.80;;;;;;4963250;28;20019;-82
2022/12/18 11:18:22;;;;;;;59.33;35.47;;;128.90;2252.80;;;;;;4960499;28;20031;-80
2022/12/18 11:20:57;;;;;;;67.85;40.20;;;;;;;;;;4962948;28;20031;-80
2022/12/18 11:23:23;;;;;;;98.47;54.65;;;;;;;;;;4962302;28;20353;-79
2022/12/18 11:26:01;;;;;;;62.15;36.22;;;;;;;;;;4963593;28;20026;-84
2022/12/18 11:28:37;;;;;;;59.60;33.38;;;;;;;;;;4962524;28;20057;-79
2022/12/18 11:31:17;;;;;;;63.63;36.70;;;;;;;;;;4962328;28;20020;-80
2022/12/18 11:33:47;;;;;;;57.22;31.38;;;;;;;;;;4962104;28;20033;-79
2022/12/18 11:36:13;;;;;;;51.03;30.10;;;;;;;;;;4962859;28;20134;-82
2022/12/18 11:38:42;;;;;;;62.20;37.40;;;153.80;2252.80;;;;;;4967917;28;20082;-78
2022/12/18 11:41:23;;;;;;;69.57;39.45;;;153.60;2252.80;;;;;;4971159;28;20475;-79
2022/12/18 11:43:55;;;;;;;66.30;40.85;;;153.80;2252.80;;;;;;4971725;28;20467;-83
2022/12/18 11:46:34;;;;;;;96.38;56.83;;;153.70;2252.80;;;;;;4976922;28;20379;-80
2022/12/18 11:49:15;;;;;;;66.65;39.15;;;153.70;2252.80;;;;;;4976525;28;20039;-83
2022/12/18 11:52:11;;;;;;;79.45;46.90;;;154.00;2252.80;;;;;;4966094;28;20030;-84
2022/12/18 11:54:37;;;;;;;52.53;31.58;;;153.90;2252.80;;;;;;4962705;28;20031;-83
2022/12/18 11:57:41;;;;;;;55.97;32.22;;;153.80;2252.80;;;;;;4973132;28;20117;-78
2022/12/18 12:00:17;;;;;;;49.42;30.30;;;153.70;2252.80;;;;;;4962517;28;20035;-80
2022/12/18 12:03:14;;;;;;;62.42;36.65;;;153.80;2252.80;;;;;;4959853;28;20116;-80
2022/12/18 12:06:18;;;;;;;57.13;34.72;;;153.90;2252.80;;;;;;4963804;28;20023;-81
2022/12/18 12:09:02;;;;;;;54.72;30.92;;;;;;;;;;4963921;28;20891;-81
2022/12/18 12:11:29;;;;;;;57.15;34.55;;;;;;;;;;4959056;29;20042;-81
2022/12/18 12:14:13;;;;;;;56.03;33.63;;;;;;;;;;4982015;28;20026;-79
2022/12/18 12:16:53;;;;;;;49.75;28.73;;;;;;;;;;4964318;28;20054;-80
2022/12/18 12:19:46;;;;;;;42.55;25.92;;;;;;;;;;4973565;28;20039;-80
2022/12/18 12:22:21;;;;;;;48.95;31.42;;;;;;;;;;4962324;28;20031;-78
2022/12/18 12:24:59;;;;;;;50.88;31.42;;;;;;;;;;4961078;28;20113;-79
2022/12/18 12:27:39;;;;;;;43.10;27.15;;;;;;;;;;4960499;28;20019;-79
2022/12/18 12:30:15;;;;;;;56.97;34.55;;;;;;;;;;4975736;28;20030;-79
2022/12/18 12:32:50;;;;;;;66.50;40.25;;;;;;;;;;4961911;28;20023;-82
2022/12/18 12:35:28;;;;;;;55.05;35.08;;;;;;;;;;4972333;28;20086;-79
2022/12/18 12:37:54;;;;;;;77.30;52.63;;;;;;;;;;4964100;28;20066;-79
2022/12/18 12:40:21;;;;;;;133.45;81.40;;;;;;;;;;4964568;28;20122;-79
2022/12/18 12:45:39;;;;;;;70.10;46.75;;;;;;;;;;4971426;28;20105;-79
2022/12/18 12:48:07;;;;;;;60.95;37.65;;;;;;;;;;4965917;28;20038;-77
2022/12/18 12:50:34;;;;;;;83.93;44.00;;;;;;;;;;4968389;28;20047;-78
2022/12/18 12:53:02;;;;;;;83.38;48.10;;;;;;;;;;4958398;28;20055;-78
2022/12/18 12:55:29;;;;;;;131.90;69.78;;;;;;;;;;4970946;28;20023;-77
2022/12/18 12:58:18;;;;;;;203.02;92.78;;;;;;;;;;4963455;28;20062;-78
2022/12/18 13:00:53;;;;;;;115.03;62.42;;;;;;;;;;4961057;28;20031;-79
2022/12/18 13:03:35;;;;;;;69.30;37.80;;;;;;;;;;4972295;28;20071;-82
2022/12/18 13:06:08;;;;;;;121.90;61.35;;;;;;;;;;4964735;28;20023;-80
2022/12/18 13:08:53;;;;;;;89.47;52.75;;;;;;;;;;4961866;28;20027;-78
2022/12/18 13:14:22;;;;;;;106.53;56.17;;;;;;;;;;4957851;28;20054;-78
2022/12/18 13:16:48;;;;;;;173.20;98.07;;;;;;;;;;4970767;28;20058;-80